Time;durP1;ratioP1;P1;durP2;ratioP2;P2;SDS_P1;SDS_P2;PMS_P1;PMS_P2;Temp;Humidity;BMP_temperature;BMP_pressure;BME280_temperature;BME280_humidity;BME280_pressure;Samples;Min_cycle;Max_cycle;Signal;HPM_P1;HPM_P2
2021/10/15 00:00:31;;;;;;;;;;;;;;;29.06;61.01;100619.66;5077237;27;70062;-35
2021/10/15 00:03:02;;;;;;;;;;;;;;;29.10;61.34;100626.28;5076232;27;65484;-35
2021/10/15 00:05:32;;;;;;;;;;;;;;;29.13;61.43;100626.69;5075784;27;70033;-34
2021/10/15 00:08:03;;;;;;;;;;;;;;;29.16;61.72;100642.47;5075293;27;65737;-34
2021/10/15 00:10:33;;;;;;;;;;;;;;;29.18;61.91;100623.34;5068772;27;69192;-34
2021/10/15 00:13:03;;;;;;;;;;;;;;;29.20;62.67;100629.38;5071980;27;66924;-34
2021/10/15 00:15:34;;;;;;;;;;;;;;;29.23;62.45;100637.03;5071390;27;70482;-34
2021/10/15 00:18:04;;;;;;;;;;;;;;;29.25;62.53;100650.31;5033872;27;64853;-39
2021/10/15 00:20:36;;;;;;;;;;;;;;;29.28;63.16;100656.16;5053419;27;70391;-34
2021/10/15 00:23:09;;;;;;;;;;;;;;;29.30;63.12;100648.63;5045380;28;66117;-34
2021/10/15 00:25:41;;;;;;;;;;;;;;;29.31;63.35;100655.72;5029591;28;70535;-34
2021/10/15 00:28:14;;;;;;;;;;;;;;;29.33;62.98;100661.72;5070894;27;67022;-34
2021/10/15 00:31:01;;;;;;;;;;;;;;;29.35;63.19;100658.81;5050994;27;69312;-34
2021/10/15 00:33:53;;;;;;;;;;;;;;;29.36;63.32;100661.31;5072524;27;65611;-34
2021/10/15 00:36:42;;;;;;;;;;;;;;;29.40;63.35;100667.91;5060733;27;69841;-34
2021/10/15 00:39:38;;;;;;;;;;;;;;;29.43;63.20;100668.53;5051315;27;65260;-34
2021/10/15 00:42:12;;;;;;;;;;;;;;;29.44;63.41;100672.88;5044878;28;69700;-34
2021/10/15 00:44:53;;;;;;;;;;;;;;;29.44;63.52;100678.28;5072210;27;67040;-34
2021/10/15 00:47:39;;;;;;;;;;;;;;;29.46;63.57;100678.91;5046005;28;69751;-34
2021/10/15 00:50:32;;;;;;;;;;;;;;;29.45;63.68;100675.38;5051362;28;65542;-34
2021/10/15 00:53:12;;;;;;;;;;;;;;;29.50;63.57;100680.13;5063393;27;70290;-34
2021/10/15 00:56:00;;;;;;;;;;;;;;;29.51;63.50;100676.41;5054199;28;65997;-33
2021/10/15 00:58:52;;;;;;;;;;;;;;;29.52;63.72;100688.84;5051359;28;70562;-33
2021/10/15 01:01:54;;;;;;;;;;;;;;;29.54;63.31;100690.31;5021163;27;65815;-34
2021/10/15 01:04:53;;;;;;;;;;;;;;;29.58;63.80;100696.91;5056610;27;69395;-33
2021/10/15 01:07:40;;;;;;;;;;;;;;;29.58;63.51;100696.09;5056818;28;66382;-34
2021/10/15 01:10:58;;;;;;;;;;;;;;;29.61;63.95;100692.97;5068561;27;70849;-33
2021/10/15 01:13:46;;;;;;;;;;;;;;;29.62;64.20;100689.22;5043798;27;66506;-33
2021/10/15 01:16:46;;;;;;;;;;;;;;;29.64;63.65;100684.44;5105320;27;43733;-34
2021/10/15 01:19:37;;;;;;;;;;;;;;;29.66;63.95;100692.34;5088965;27;70209;-34
2021/10/15 01:22:33;;;;;;;;;;;;;;;29.65;64.28;100694.22;5097141;27;65942;-34
2021/10/15 01:25:50;;;;;;;;;;;;;;;29.74;70.41;100692.94;5098649;27;69273;-35
2021/10/15 01:28:40;;;;;;;;;;;;;;;29.81;72.41;100698.28;5084731;27;64779;-35
2021/10/15 01:31:40;;;;;;;;;;;;;;;29.88;73.44;100693.66;5102236;27;70106;-35
2021/10/15 01:34:57;;;;;;;;;;;;;;;29.92;73.98;100688.66;5098051;27;64404;-35
2021/10/15 01:37:58;;;;;;;;;;;;;;;29.96;74.18;100700.69;5082014;27;69203;-35
2021/10/15 01:40:55;;;;;;;;;;;;;;;30.00;74.52;100707.31;5099315;27;67079;-35
2021/10/15 01:43:44;;;;;;;;;;;;;;;30.02;74.87;100697.94;5106515;27;69257;-34
2021/10/15 01:46:42;;;;;;;;;;;;;;;29.99;74.60;100689.44;5096621;27;66613;-35
2021/10/15 01:49:47;;;;;;;;;;;;;;;30.12;74.03;100702.88;5097421;27;68698;-34
2021/10/15 01:53:14;;;;;;;;;;;;;;;30.17;73.94;100703.06;5086551;27;66633;-35
2021/10/15 01:55:54;;;;;;;;;;;;;;;30.18;74.13;100699.28;5066924;27;70415;-35
2021/10/15 01:58:58;;;;;;;;;;;;;;;30.20;74.03;100699.91;5100253;27;65770;-35
2021/10/15 02:01:54;;;;;;;;;;;;;;;30.23;72.92;100690.56;5081989;27;70360;-35
2021/10/15 02:04:34;;;;;;;;;;;;;;;30.24;73.92;100698.44;5087021;27;66344;-35
2021/10/15 02:07:44;;;;;;;;;;;;;;;30.27;73.33;100698.00;5098092;27;69683;-34
2021/10/15 02:10:37;;;;;;;;;;;;;;;30.30;73.53;100701.31;5065300;27;67808;-35
2021/10/15 02:13:47;;;;;;;;;;;;;;;30.32;73.33;100704.63;5101217;27;70791;-35
2021/10/15 02:16:35;;;;;;;;;;;;;;;30.34;73.15;100700.66;5097292;27;66564;-35
2021/10/15 02:19:21;;;;;;;;;;;;;;;30.35;73.51;100698.78;5098119;27;70732;-35
2021/10/15 02:21:57;;;;;;;;;;;;;;;30.38;73.14;100703.75;5093752;27;66802;-35
2021/10/15 02:24:45;;;;;;;;;;;;;;;30.42;72.34;100699.53;5085155;27;70316;-35
2021/10/15 02:27:26;;;;;;;;;;;;;;;30.44;73.18;100697.44;5069729;27;65681;-35
2021/10/15 02:30:30;;;;;;;;;;;;;;;30.46;73.80;100689.94;5060908;27;69311;-35
2021/10/15 02:33:16;;;;;;;;;;;;;;;30.50;74.19;100704.66;5087170;27;65434;-35
2021/10/15 02:36:09;;;;;;;;;;;;;;;30.53;73.98;100698.81;5078456;27;70184;-34
2021/10/15 02:39:14;;;;;;;;;;;;;;;30.57;74.54;100701.91;5081962;27;67046;-34
2021/10/15 02:41:53;;;;;;;;;;;;;;;30.60;74.28;100696.88;5082960;27;69978;-34
2021/10/15 02:44:38;;;;;;;;;;;;;;;30.62;74.00;100700.19;5078773;27;65702;-34
2021/10/15 02:47:15;;;;;;;;;;;;;;;30.65;75.00;100699.75;5085116;27;69828;-33
2021/10/15 02:49:54;;;;;;;;;;;;;;;30.68;74.57;100691.19;5078897;27;65663;-34
2021/10/15 02:53:15;;;;;;;;;;;;;;;30.68;74.69;100693.88;5088775;27;70662;-34
2021/10/15 02:56:01;;;;;;;;;;;;;;;30.71;74.70;100698.84;5088317;27;65694;-35
2021/10/15 02:58:49;;;;;;;;;;;;;;;30.70;74.68;100691.78;5082530;27;69364;-35
2021/10/15 03:01:35;;;;;;;;;;;;;;;30.76;74.08;100691.91;5068121;27;66197;-35
2021/10/15 03:04:15;;;;;;;;;;;;;;;30.80;73.59;100688.56;5080357;27;70459;-35
2021/10/15 03:06:54;;;;;;;;;;;;;;;30.84;71.72;100692.50;5083384;27;66933;-34
2021/10/15 03:09:26;;;;;;;;;;;;;;;30.88;73.12;100684.75;5087431;27;70417;-32
2021/10/15 03:12:08;;;;;;;;;;;;;;;30.88;73.60;100682.03;5089706;27;65990;-35
2021/10/15 03:15:04;;;;;;;;;;;;;;;30.92;73.24;100678.66;5086558;27;70006;-35
2021/10/15 03:18:13;;;;;;;;;;;;;;;30.94;73.05;100676.53;5079706;27;66548;-33
2021/10/15 03:21:09;;;;;;;;;;;;;;;30.95;73.20;100661.13;5087149;27;71123;-36
2021/10/15 03:23:46;;;;;;;;;;;;;;;30.99;73.09;100667.75;5078307;27;66332;-34
2021/10/15 03:26:17;;;;;;;;;;;;;;;30.99;72.73;100666.94;5077832;27;70073;-34
2021/10/15 03:28:48;;;;;;;;;;;;;;;31.01;72.67;100671.06;5090827;27;65415;-34
2021/10/15 03:31:18;;;;;;;;;;;;;;;31.02;72.12;100669.19;5078455;27;69765;-34
2021/10/15 03:33:53;;;;;;;;;;;;;;;31.01;72.61;100668.34;5086118;27;68394;-33
2021/10/15 03:36:27;;;;;;;;;;;;;;;31.01;71.69;100662.94;5085248;27;69117;-33
2021/10/15 03:39:00;;;;;;;;;;;;;;;31.03;70.58;100655.41;5080089;27;65783;-32
2021/10/15 03:41:31;;;;;;;;;;;;;;;31.06;71.92;100662.25;5087808;27;70021;-33
2021/10/15 03:44:02;;;;;;;;;;;;;;;31.07;71.21;100647.66;5088936;27;66466;-33
2021/10/15 03:46:34;;;;;;;;;;;;;;;31.09;71.54;100640.97;5082116;27;69168;-33
2021/10/15 03:49:05;;;;;;;;;;;;;;;31.09;71.46;100638.25;5078651;27;66599;-33
2021/10/15 03:51:49;;;;;;;;;;;;;;;31.13;70.58;100625.88;5080073;27;69873;-34
2021/10/15 03:54:21;;;;;;;;;;;;;;;31.21;69.74;100621.22;5085299;27;66223;-34
2021/10/15 03:56:55;;;;;;;;;;;;;;;31.22;71.36;100620.16;5082673;27;68816;-34
2021/10/15 03:59:25;;;;;;;;;;;;;;;31.24;70.48;100609.94;5080026;27;66747;-35
2021/10/15 04:01:58;;;;;;;;;;;;;;;31.25;69.69;100606.16;5085976;27;70139;-34
2021/10/15 04:04:29;;;;;;;;;;;;;;;31.26;70.49;100613.22;5079716;27;65533;-34
2021/10/15 04:07:00;;;;;;;;;;;;;;;31.27;70.08;100593.22;5082655;27;70131;-34
2021/10/15 04:09:36;;;;;;;;;;;;;;;31.29;70.54;100596.53;5084363;27;65877;-34
2021/10/15 04:12:30;;;;;;;;;;;;;;;31.28;70.78;100590.25;5083534;27;70751;-34
2021/10/15 04:15:24;;;;;;;;;;;;;;;31.27;70.20;100577.78;5074924;27;66293;-34
2021/10/15 04:17:54;;;;;;;;;;;;;;;31.28;69.90;100582.13;5064627;27;69612;-34
2021/10/15 04:20:25;;;;;;;;;;;;;;;31.34;68.25;100572.25;5088869;27;67134;-34
2021/10/15 04:23:13;;;;;;;;;;;;;;;31.37;68.92;100567.25;5084931;27;69548;-34
2021/10/15 04:25:43;;;;;;;;;;;;;;;31.40;68.21;100565.94;5083471;27;65875;-38
2021/10/15 04:28:18;;;;;;;;;;;;;;;31.38;69.29;100559.94;5084683;27;69775;-34
2021/10/15 04:30:50;;;;;;;;;;;;;;;31.36;69.24;100557.44;5089045;27;66473;-34
2021/10/15 04:33:25;;;;;;;;;;;;;;;31.39;68.86;100558.84;5081113;27;69998;-34
2021/10/15 04:35:56;;;;;;;;;;;;;;;31.43;68.27;100546.50;5079234;27;66173;-35
2021/10/15 04:38:27;;;;;;;;;;;;;;;31.48;68.02;100535.81;5082810;27;69047;-34
2021/10/15 04:40:57;;;;;;;;;;;;;;;31.55;67.55;100531.09;5084880;27;64824;-34
2021/10/15 04:43:28;;;;;;;;;;;;;;;31.56;67.73;100527.31;5083435;27;69990;-35
2021/10/15 04:45:58;;;;;;;;;;;;;;;31.56;67.12;100521.06;5082938;27;66208;-35
2021/10/15 04:48:29;;;;;;;;;;;;;;;31.58;67.25;100522.47;5079750;27;70426;-34
2021/10/15 04:50:59;;;;;;;;;;;;;;;31.56;67.60;100512.94;5087646;27;66803;-35
2021/10/15 04:53:29;;;;;;;;;;;;;;;31.59;67.28;100502.47;5080237;27;69863;-34
2021/10/15 04:56:05;;;;;;;;;;;;;;;31.61;67.50;100503.03;5082696;27;66326;-34
2021/10/15 04:58:35;;;;;;;;;;;;;;;31.63;67.55;100496.56;5068217;27;71622;-35
2021/10/15 05:01:06;;;;;;;;;;;;;;;31.67;66.61;100493.13;5081938;27;65619;-35
2021/10/15 05:03:36;;;;;;;;;;;;;;;31.68;67.08;100483.94;5082344;27;70090;-35
2021/10/15 05:06:10;;;;;;;;;;;;;;;31.69;67.21;100477.47;5083954;27;66440;-34
2021/10/15 05:09:00;;;;;;;;;;;;;;;31.70;67.70;100470.97;5079032;27;70270;-34
2021/10/15 05:11:34;;;;;;;;;;;;;;;31.74;66.31;100468.63;5080170;27;66777;-34
2021/10/15 05:14:05;;;;;;;;;;;;;;;31.71;67.32;100464.50;5071529;27;71241;-33
2021/10/15 05:16:36;;;;;;;;;;;;;;;31.71;67.77;100463.69;5082739;27;65968;-33
2021/10/15 05:19:07;;;;;;;;;;;;;;;31.78;67.67;100453.53;5050299;27;70324;-33
2021/10/15 05:21:39;;;;;;;;;;;;;;;31.87;68.07;100448.56;5086082;27;65563;-33
2021/10/15 05:24:09;;;;;;;;;;;;;;;31.93;67.70;100434.91;5083777;27;69915;-33
2021/10/15 05:26:40;;;;;;;;;;;;;;;32.01;67.89;100433.72;5081274;27;66561;-34
2021/10/15 05:29:10;;;;;;;;;;;;;;;31.93;67.75;100412.38;5081800;27;69837;-34
2021/10/15 05:31:40;;;;;;;;;;;;;;;32.10;67.41;100431.47;5084516;27;65966;-34
2021/10/15 05:34:11;;;;;;;;;;;;;;;32.12;67.37;100410.31;5079710;27;69649;-35
2021/10/15 05:36:42;;;;;;;;;;;;;;;32.04;67.38;100387.94;5082143;27;65994;-34
2021/10/15 05:39:12;;;;;;;;;;;;;;;32.17;67.00;100399.59;5084518;27;70414;-34
2021/10/15 05:41:42;;;;;;;;;;;;;;;32.18;66.67;100393.06;5084382;27;66005;-31
2021/10/15 05:44:13;;;;;;;;;;;;;;;32.20;66.40;100388.25;5079905;27;70031;-32
2021/10/15 05:46:43;;;;;;;;;;;;;;;32.21;66.55;100382.59;5079875;27;66883;-32
2021/10/15 05:49:13;;;;;;;;;;;;;;;32.22;66.17;100373.38;5083214;27;70046;-32
2021/10/15 05:51:47;;;;;;;;;;;;;;;32.24;66.32;100365.00;5077089;27;66530;-34
2021/10/15 05:54:27;;;;;;;;;;;;;;;32.25;66.65;100356.59;5079769;27;70387;-32
2021/10/15 05:57:28;;;;;;;;;;;;;;;32.27;66.27;100359.91;5082551;27;66547;-33
2021/10/15 05:59:59;;;;;;;;;;;;;;;32.29;66.47;100351.53;5088282;27;70289;-32
2021/10/15 06:02:43;;;;;;;;;;;;;;;32.30;66.19;100353.16;5086960;27;66711;-32
2021/10/15 06:05:41;;;;;;;;;;;;;;;32.30;66.05;100358.59;5084777;27;70071;-33
2021/10/15 06:16:32;;;;;;;;;;;;;;;32.37;65.15;100353.81;5076280;27;70928;-33
2021/10/15 06:19:07;;;;;;;;;;;;;;;32.38;64.99;100355.50;5083999;27;65641;-33
2021/10/15 06:21:38;;;;;;;;;;;;;;;32.38;64.94;100344.63;5079141;27;70473;-40
2021/10/15 06:24:08;;;;;;;;;;;;;;;32.40;64.63;100342.50;5082773;27;66057;-33
2021/10/15 06:26:39;;;;;;;;;;;;;;;32.41;64.93;100346.88;5081230;27;69469;-33
2021/10/15 06:29:19;;;;;;;;;;;;;;;32.43;64.19;100341.16;5083007;27;66100;-33
2021/10/15 06:31:51;;;;;;;;;;;;;;;32.44;64.11;100335.50;5065317;27;70449;-34
2021/10/15 06:34:22;;;;;;;;;;;;;;;32.44;63.68;100332.81;5083305;27;66478;-33
2021/10/15 06:36:55;;;;;;;;;;;;;;;32.46;63.66;100319.03;5072248;27;69108;-33
2021/10/15 06:39:25;;;;;;;;;;;;;;;32.49;63.54;100324.78;5083496;27;65653;-33
2021/10/15 06:41:56;;;;;;;;;;;;;;;32.51;63.58;100316.38;5084450;27;70336;-33
2021/10/15 06:44:26;;;;;;;;;;;;;;;32.53;63.59;100313.44;5084794;27;66578;-34
2021/10/15 06:47:00;;;;;;;;;;;;;;;32.54;63.39;100298.78;5086432;27;69252;-33
2021/10/15 06:49:30;;;;;;;;;;;;;;;32.55;63.28;100300.44;5084646;27;65537;-33
2021/10/15 06:52:00;;;;;;;;;;;;;;;32.55;63.81;100295.00;5085295;27;71218;-33
2021/10/15 06:54:31;;;;;;;;;;;;;;;32.56;63.20;100302.91;5081056;27;66653;-34
2021/10/15 06:57:23;;;;;;;;;;;;;;;32.58;63.06;100302.66;5083780;27;70214;-34
2021/10/15 06:59:56;;;;;;;;;;;;;;;32.58;62.93;100295.34;5083349;27;66022;-34
2021/10/15 07:02:36;;;;;;;;;;;;;;;32.61;63.23;100288.59;5086470;27;69965;-34
2021/10/15 07:05:08;;;;;;;;;;;;;;;32.61;63.20;100294.84;5087789;27;66604;-39
2021/10/15 07:07:49;;;;;;;;;;;;;;;32.63;63.02;100281.03;5085344;27;69942;-34
2021/10/15 07:10:25;;;;;;;;;;;;;;;32.65;63.08;100290.56;5089391;27;67343;-34
2021/10/15 07:13:02;;;;;;;;;;;;;;;32.66;63.12;100285.97;5085494;27;70752;-34
2021/10/15 07:15:35;;;;;;;;;;;;;;;32.66;62.90;100284.06;5089911;27;66537;-34
2021/10/15 07:18:16;;;;;;;;;;;;;;;32.68;63.04;100281.09;5071277;27;70524;-34
2021/10/15 07:21:03;;;;;;;;;;;;;;;32.70;62.90;100281.66;5081359;27;66935;-34
2021/10/15 07:23:40;;;;;;;;;;;;;;;32.57;62.63;100269.25;5078662;27;70133;-34
2021/10/15 07:26:24;;;;;;;;;;;;;;;32.70;62.87;100282.47;5074554;27;65994;-34
2021/10/15 07:29:00;;;;;;;;;;;;;;;32.64;63.02;100288.91;5066938;27;70211;-34
2021/10/15 07:31:31;;;;;;;;;;;;;;;32.67;63.01;100303.88;5066561;27;65471;-34
2021/10/15 07:34:28;;;;;;;;;;;;;;;32.68;62.92;100311.81;5071457;27;69852;-34
2021/10/15 07:37:04;;;;;;;;;;;;;;;32.69;62.78;100323.50;5077493;27;65182;-34
2021/10/15 07:40:06;;;;;;;;;;;;;;;32.70;62.26;100314.25;5061119;27;68791;-34
2021/10/15 07:42:57;;;;;;;;;;;;;;;32.70;62.66;100314.25;5084176;27;66145;-34
2021/10/15 07:45:31;;;;;;;;;;;;;;;32.72;62.35;100325.72;5045249;27;69903;-34
2021/10/15 07:48:17;;;;;;;;;;;;;;;32.75;61.93;100329.81;5077039;27;65787;-34
2021/10/15 07:50:56;;;;;;;;;;;;;;;32.76;61.80;100318.69;5081046;27;69247;-34
2021/10/15 07:53:50;;;;;;;;;;;;;;;32.79;61.78;100325.53;5077421;27;66399;-34
2021/10/15 07:56:36;;;;;;;;;;;;;;;32.84;61.88;100331.06;5084021;27;70627;-34
2021/10/15 07:59:42;;;;;;;;;;;;;;;32.78;62.74;100338.28;5085466;27;66677;-34
2021/10/15 08:02:24;;;;;;;;;;;;;;;32.71;62.31;100341.19;5076326;27;70271;-34
2021/10/15 08:05:00;;;;;;;;;;;;;;;32.71;62.54;100343.09;5068822;27;65185;-34
2021/10/15 08:07:49;;;;;;;;;;;;;;;32.70;62.85;100334.09;5078453;27;69933;-34
2021/10/15 08:10:21;;;;;;;;;;;;;;;32.66;63.46;100335.66;5062827;27;67065;-34
2021/10/15 08:13:03;;;;;;;;;;;;;;;32.67;63.24;100328.34;5060450;27;69328;-35
2021/10/15 08:15:47;;;;;;;;;;;;;;;32.68;63.13;100322.66;5070109;27;65652;-35
2021/10/15 08:18:57;;;;;;;;;;;;;;;32.67;63.49;100336.47;5048168;28;71176;-35
2021/10/15 08:22:19;;;;;;;;;;;;;;;32.64;63.60;100331.53;5015941;28;67294;-34
2021/10/15 08:25:32;;;;;;;;;;;;;;;32.67;63.85;100347.34;4992549;28;71270;-34
2021/10/15 08:28:18;;;;;;;;;;;;;;;32.69;63.74;100342.50;4978041;28;66399;-34
2021/10/15 08:31:43;;;;;;;;;;;;;;;32.66;63.79;100346.53;4991986;28;70635;-34
2021/10/15 08:34:44;;;;;;;;;;;;;;;32.70;63.65;100338.69;5005148;28;67015;-34
2021/10/15 08:37:37;;;;;;;;;;;;;;;32.68;63.34;100338.97;5065947;27;70155;-34
2021/10/15 08:40:38;;;;;;;;;;;;;;;32.67;63.65;100350.06;5072580;27;64932;-34
2021/10/15 08:43:42;;;;;;;;;;;;;;;32.66;63.38;100356.56;5048926;27;69447;-35
2021/10/15 08:46:37;;;;;;;;;;;;;;;32.58;63.42;100365.94;5095537;27;66843;-35
2021/10/15 08:49:31;;;;;;;;;;;;;;;32.34;63.81;100380.63;5083369;27;69807;-34
2021/10/15 08:52:05;;;;;;;;;;;;;;;32.20;64.27;100385.53;5081450;27;66484;-34
2021/10/15 08:54:48;;;;;;;;;;;;;;;32.15;64.46;100386.28;5068496;27;70094;-35
2021/10/15 08:57:28;;;;;;;;;;;;;;;32.02;65.03;100383.81;5079073;27;65711;-36
2021/10/15 09:00:21;;;;;;;;;;;;;;;32.00;64.67;100385.94;5078760;27;68653;-35
2021/10/15 09:03:12;;;;;;;;;;;;;;;31.94;65.32;100409.44;5086831;27;66419;-35
2021/10/15 09:05:55;;;;;;;;;;;;;;;31.89;65.94;100414.72;5077787;27;70412;-35
2021/10/15 09:08:42;;;;;;;;;;;;;;;32.10;66.25;100415.19;5077605;27;64761;-34
2021/10/15 09:11:42;;;;;;;;;;;;;;;32.24;65.43;100430.13;5076777;27;69960;-34
2021/10/15 09:14:17;;;;;;;;;;;;;;;32.31;65.53;100430.81;5082366;27;65492;-34
2021/10/15 09:16:51;;;;;;;;;;;;;;;32.26;65.50;100438.84;5079766;27;70121;-34
2021/10/15 09:19:32;;;;;;;;;;;;;;;32.12;66.13;100437.47;5081134;27;65822;-34
2021/10/15 09:22:11;;;;;;;;;;;;;;;32.13;65.87;100449.97;5081174;27;69269;-34
2021/10/15 09:25:03;;;;;;;;;;;;;;;32.03;66.34;100437.81;5076912;27;66268;-33
2021/10/15 09:28:03;;;;;;;;;;;;;;;32.07;65.87;100440.91;5068901;27;69114;-33
2021/10/15 09:30:39;;;;;;;;;;;;;;;32.11;65.59;100446.69;5072953;27;66805;-33
2021/10/15 09:33:11;;;;;;;;;;;;;;;32.04;65.75;100438.69;5076441;27;70294;-33
2021/10/15 09:35:41;;;;;;;;;;;;;;;31.99;65.89;100444.81;5084048;27;66154;-34
2021/10/15 09:38:11;;;;;;;;;;;;;;;31.94;65.80;100447.41;5082689;27;69362;-34
2021/10/15 09:40:44;;;;;;;;;;;;;;;31.90;65.95;100450.78;5085050;27;65748;-34
2021/10/15 09:43:15;;;;;;;;;;;;;;;31.80;66.28;100457.66;5084009;27;68274;-34
2021/10/15 09:45:52;;;;;;;;;;;;;;;31.75;66.11;100464.84;5078024;27;66390;-34
2021/10/15 09:48:28;;;;;;;;;;;;;;;31.74;66.08;100452.34;5089031;27;69639;-34
2021/10/15 09:51:14;;;;;;;;;;;;;;;31.60;66.35;100449.88;5080778;27;65515;-33
2021/10/15 09:54:05;;;;;;;;;;;;;;;31.51;67.41;100456.72;5085124;27;70114;-34
2021/10/15 09:56:39;;;;;;;;;;;;;;;31.44;67.71;100450.56;5085336;27;65800;-34
2021/10/15 09:59:10;;;;;;;;;;;;;;;31.39;68.44;100461.28;5080258;27;69475;-33
2021/10/15 10:01:44;;;;;;;;;;;;;;;31.37;68.48;100456.13;5083686;27;66446;-33
2021/10/15 10:04:21;;;;;;;;;;;;;;;31.35;68.82;100452.78;5088267;27;70147;-34
2021/10/15 10:06:51;;;;;;;;;;;;;;;31.32;68.65;100455.97;5088387;27;66595;-40
2021/10/15 10:09:22;;;;;;;;;;;;;;;31.33;68.87;100462.19;5079690;27;70399;-34
2021/10/15 10:11:53;;;;;;;;;;;;;;;31.30;68.77;100471.63;5085702;27;66664;-33
2021/10/15 10:14:24;;;;;;;;;;;;;;;31.30;69.14;100476.22;5090081;27;69828;-34
2021/10/15 10:16:55;;;;;;;;;;;;;;;31.28;69.12;100473.72;5086379;27;65778;-33
2021/10/15 10:19:27;;;;;;;;;;;;;;;31.28;69.43;100475.63;5085279;27;70438;-34
2021/10/15 10:21:57;;;;;;;;;;;;;;;31.27;69.90;100473.97;5084564;27;66689;-33
2021/10/15 10:24:31;;;;;;;;;;;;;;;31.24;69.64;100469.84;5082853;27;70327;-33
2021/10/15 10:27:01;;;;;;;;;;;;;;;31.24;69.72;100477.16;5082184;27;66503;-33
2021/10/15 10:29:44;;;;;;;;;;;;;;;31.23;70.10;100478.19;5082469;27;70593;-34
2021/10/15 10:32:15;;;;;;;;;;;;;;;31.21;70.14;100493.88;5078324;27;65489;-34
2021/10/15 10:34:45;;;;;;;;;;;;;;;31.20;70.35;100505.75;5086967;27;70585;-34
2021/10/15 10:37:18;;;;;;;;;;;;;;;31.19;69.97;100507.63;5081603;27;66645;-34
2021/10/15 10:40:10;;;;;;;;;;;;;;;31.16;69.81;100517.06;5086435;27;69770;-33
2021/10/15 10:43:17;;;;;;;;;;;;;;;31.14;69.59;100508.31;5079676;27;66639;-33
2021/10/15 10:46:23;;;;;;;;;;;;;;;31.12;69.31;100515.88;5067561;27;70894;-34
2021/10/15 10:49:04;;;;;;;;;;;;;;;31.11;69.29;100525.03;5065972;27;65700;-34
2021/10/15 10:51:40;;;;;;;;;;;;;;;31.10;70.23;100539.66;5084533;27;70168;-33
2021/10/15 10:54:27;;;;;;;;;;;;;;;31.09;69.62;100529.88;5079514;27;66586;-33
2021/10/15 10:57:11;;;;;;;;;;;;;;;31.09;69.82;100532.59;5081396;27;70608;-33
2021/10/15 10:59:45;;;;;;;;;;;;;;;31.07;69.84;100532.00;5086207;27;66256;-33
2021/10/15 11:02:17;;;;;;;;;;;;;;;31.07;69.35;100518.44;5080837;27;70463;-33
2021/10/15 11:04:51;;;;;;;;;;;;;;;31.05;69.84;100520.56;5086673;27;65930;-33
2021/10/15 11:07:25;;;;;;;;;;;;;;;31.05;69.23;100531.38;5087878;27;69981;-33
2021/10/15 11:10:00;;;;;;;;;;;;;;;31.03;69.81;100541.63;5083290;27;66172;-34
2021/10/15 11:12:30;;;;;;;;;;;;;;;31.03;69.91;100536.19;5084678;27;70113;-33
2021/10/15 11:15:11;;;;;;;;;;;;;;;31.03;69.84;100547.03;5082205;27;65844;-33
2021/10/15 11:17:47;;;;;;;;;;;;;;;31.02;69.87;100531.84;5081020;27;69844;-34
2021/10/15 11:20:22;;;;;;;;;;;;;;;30.99;69.95;100526.91;5084924;27;66636;-34
2021/10/15 11:22:59;;;;;;;;;;;;;;;30.99;69.87;100532.31;5082005;27;70189;-33
2021/10/15 11:25:33;;;;;;;;;;;;;;;30.98;69.78;100519.84;5080473;27;67020;-34
2021/10/15 11:28:05;;;;;;;;;;;;;;;30.96;69.97;100527.34;5080370;27;70347;-33
2021/10/15 11:30:39;;;;;;;;;;;;;;;30.96;69.55;100516.53;5082813;27;66692;-33
2021/10/15 11:33:14;;;;;;;;;;;;;;;30.94;69.56;100530.28;5083255;27;69963;-33
2021/10/15 11:35:49;;;;;;;;;;;;;;;30.94;69.89;100537.59;5081941;27;66093;-33
2021/10/15 11:38:22;;;;;;;;;;;;;;;30.91;70.23;100540.75;5077590;27;69501;-33
2021/10/15 11:40:56;;;;;;;;;;;;;;;30.91;70.07;100546.16;5080046;27;66587;-33
2021/10/15 11:43:33;;;;;;;;;;;;;;;30.91;70.40;100554.28;5077934;27;70381;-33
2021/10/15 11:46:05;;;;;;;;;;;;;;;30.87;70.41;100566.63;5079172;27;66147;-33
2021/10/15 11:48:45;;;;;;;;;;;;;;;30.86;70.42;100581.22;5087350;27;70309;-33
2021/10/15 11:51:18;;;;;;;;;;;;;;;30.88;70.46;100587.25;5084138;27;65973;-33
2021/10/15 11:53:51;;;;;;;;;;;;;;;30.86;70.50;100592.06;5082717;27;69368;-35
2021/10/15 11:56:29;;;;;;;;;;;;;;;30.87;70.17;100593.72;5064779;27;66363;-33
2021/10/15 11:59:01;;;;;;;;;;;;;;;30.86;70.67;100602.91;5085871;27;68669;-34
2021/10/15 12:01:36;;;;;;;;;;;;;;;30.88;70.06;100606.22;5092012;27;66763;-33
2021/10/15 12:04:12;;;;;;;;;;;;;;;30.85;69.86;100595.84;5081739;27;70717;-33
2021/10/15 12:06:48;;;;;;;;;;;;;;;30.86;69.84;100605.59;5084777;27;65554;-33
2021/10/15 12:09:20;;;;;;;;;;;;;;;30.85;69.71;100620.22;5074596;27;69789;-34
2021/10/15 12:11:52;;;;;;;;;;;;;;;30.84;69.91;100626.66;5093222;27;65701;-34
2021/10/15 12:14:29;;;;;;;;;;;;;;;30.85;69.46;100628.34;5085071;27;70342;-34
2021/10/15 12:17:02;;;;;;;;;;;;;;;30.84;69.94;100638.34;5072898;27;65140;-34
2021/10/15 12:19:34;;;;;;;;;;;;;;;30.82;69.90;100645.84;5083459;27;69631;-33
2021/10/15 12:22:26;;;;;;;;;;;;;;;30.82;69.58;100643.16;5077563;27;66466;-33
2021/10/15 12:24:58;;;;;;;;;;;;;;;30.81;69.65;100648.78;5083353;27;70644;-33
2021/10/15 12:27:36;;;;;;;;;;;;;;;30.80;69.08;100655.25;5078588;27;66367;-33
2021/10/15 12:30:15;;;;;;;;;;;;;;;30.80;69.26;100652.56;5077984;27;69443;-33
2021/10/15 12:32:47;;;;;;;;;;;;;;;30.79;69.09;100667.13;5083597;27;65891;-34
2021/10/15 12:35:26;;;;;;;;;;;;;;;30.77;69.14;100675.47;5087601;27;70321;-34
2021/10/15 12:38:06;;;;;;;;;;;;;;;30.77;69.02;100671.94;5075890;27;66591;-34
2021/10/15 12:40:41;;;;;;;;;;;;;;;30.79;68.70;100680.66;5060666;27;72120;-34
2021/10/15 12:43:18;;;;;;;;;;;;;;;30.74;69.02;100681.31;5080981;27;65654;-34
2021/10/15 12:45:54;;;;;;;;;;;;;;;30.73;68.60;100680.50;5081348;27;70554;-33
2021/10/15 12:48:35;;;;;;;;;;;;;;;30.73;69.18;100685.91;5083692;27;66195;-33
2021/10/15 12:51:09;;;;;;;;;;;;;;;30.71;69.08;100688.00;5080450;27;68262;-33
2021/10/15 12:53:45;;;;;;;;;;;;;;;30.72;69.26;100689.66;5081533;27;65783;-33
2021/10/15 12:56:18;;;;;;;;;;;;;;;30.70;68.72;100691.78;5084592;27;69552;-33
2021/10/15 12:58:54;;;;;;;;;;;;;;;30.68;69.40;100696.59;5087338;27;66741;-33
2021/10/15 13:01:34;;;;;;;;;;;;;;;30.69;69.20;100706.34;5080310;27;69224;-33
2021/10/15 13:04:11;;;;;;;;;;;;;;;30.69;69.07;100710.94;5081923;27;66563;-34
2021/10/15 13:06:46;;;;;;;;;;;;;;;30.66;69.50;100706.81;5080127;27;69844;-33
2021/10/15 13:09:22;;;;;;;;;;;;;;;30.67;68.91;100713.91;5083702;27;66747;-34
2021/10/15 13:11:54;;;;;;;;;;;;;;;30.65;69.12;100707.88;5084706;27;69521;-34
2021/10/15 13:14:30;;;;;;;;;;;;;;;30.64;69.31;100711.59;5078927;27;66245;-34
2021/10/15 13:17:12;;;;;;;;;;;;;;;30.64;69.48;100717.03;5081561;27;69578;-35
2021/10/15 13:19:55;;;;;;;;;;;;;;;30.63;69.55;100723.50;5083666;27;66773;-34
2021/10/15 13:22:33;;;;;;;;;;;;;;;30.65;69.26;100728.69;5077047;27;70260;-34
2021/10/15 13:25:41;;;;;;;;;;;;;;;30.64;69.16;100735.97;5082192;27;66947;-34
2021/10/15 13:28:37;;;;;;;;;;;;;;;30.62;69.20;100732.69;5075066;27;70592;-34
2021/10/15 13:31:24;;;;;;;;;;;;;;;30.59;68.31;100738.53;5051203;27;66059;-34
2021/10/15 13:34:05;;;;;;;;;;;;;;;30.49;67.12;100739.03;5080356;27;70549;-34
2021/10/15 13:36:46;;;;;;;;;;;;;;;30.36;65.57;100741.84;5064393;27;65313;-34
2021/10/15 13:39:30;;;;;;;;;;;;;;;30.24;63.96;100735.50;5077532;27;69316;-34
2021/10/15 13:51:01;;;;;;;;;;;;;;;29.87;60.99;100729.88;5069172;27;70425;-34
2021/10/15 13:53:51;;;;;;;;;;;;;;;29.78;60.68;100726.59;5081951;27;66275;-34
2021/10/15 13:57:23;;;;;;;;;;;;;;;29.75;61.30;100727.00;5082239;27;70235;-35
2021/10/15 14:00:25;;;;;;;;;;;;;;;29.72;60.30;100730.16;5076197;27;65825;-34
2021/10/15 14:03:18;;;;;;;;;;;;;;;29.65;59.76;100737.47;5079740;27;69210;-34